Time;durP1;ratioP1;P1;durP2;ratioP2;P2;SDS_P1;SDS_P2;PMS_P1;PMS_P2;Temp;Humidity;BMP_temperature;BMP_pressure;BME280_temperature;BME280_humidity;BME280_pressure;Samples;Min_cycle;Max_cycle;Signal;HPM_P1;HPM_P2
2021/05/04 00:00:06;;;;;;;5.65;3.47;;;11.80;90.30;;;;;;5093493;28;20105;-84
2021/05/04 00:02:33;;;;;;;5.93;3.40;;;11.70;91.00;;;;;;5093861;28;20446;-83
2021/05/04 00:04:59;;;;;;;7.80;4.10;;;11.50;91.90;;;;;;5097715;28;20048;-83
2021/05/04 00:07:26;;;;;;;5.25;4.03;;;11.40;93.30;;;;;;5090282;28;20051;-83
2021/05/04 00:09:52;;;;;;;7.72;3.55;;;11.30;95.00;;;;;;5095977;28;20128;-84
2021/05/04 00:12:18;;;;;;;5.75;4.40;;;11.20;98.00;;;;;;5078609;28;20131;-84
2021/05/04 00:14:45;;;;;;;8.15;4.18;;;10.90;99.90;;;;;;5076245;28;20087;-84
2021/05/04 00:17:11;;;;;;;4.32;3.58;;;10.70;99.90;;;;;;5070782;28;20099;-83
2021/05/04 00:19:39;;;;;;;7.00;4.53;;;10.50;99.90;;;;;;5074614;28;20074;-83
2021/05/04 00:22:06;;;;;;;5.22;4.25;;;10.30;99.90;;;;;;5072792;28;20080;-83
2021/05/04 00:24:33;;;;;;;7.65;5.03;;;10.10;99.90;;;;;;5075926;28;20052;-83
2021/05/04 00:26:59;;;;;;;6.30;4.38;;;10.00;99.90;;;;;;5072697;28;20135;-83
2021/05/04 00:29:25;;;;;;;7.18;5.05;;;9.80;99.90;;;;;;5078111;28;20052;-84
2021/05/04 00:31:51;;;;;;;6.97;5.35;;;9.70;99.90;;;;;;5092873;28;20053;-83
2021/05/04 00:34:19;;;;;;;8.65;5.55;;;9.60;99.90;;;;;;5095926;27;20035;-83
2021/05/04 00:36:45;;;;;;;9.50;5.53;;;9.50;99.90;;;;;;5093774;28;20119;-83
2021/05/04 00:39:11;;;;;;;7.32;5.47;;;9.50;99.90;;;;;;5093518;27;20048;-84
2021/05/04 00:41:38;;;;;;;8.88;5.70;;;9.40;99.90;;;;;;5094966;28;20082;-83
2021/05/04 00:44:04;;;;;;;12.88;6.05;;;9.40;99.90;;;;;;5096913;28;20481;-83
2021/05/04 00:46:30;;;;;;;8.13;5.63;;;9.30;99.90;;;;;;5093106;28;20086;-83
2021/05/04 00:48:57;;;;;;;8.98;6.13;;;9.20;99.90;;;;;;5080210;28;20121;-83
2021/05/04 00:51:23;;;;;;;11.02;5.50;;;9.20;99.90;;;;;;5073358;28;20075;-83
2021/05/04 00:53:50;;;;;;;9.25;5.93;;;9.20;99.90;;;;;;5075390;28;20060;-83
2021/05/04 00:56:18;;;;;;;13.88;6.68;;;9.10;99.90;;;;;;5095104;28;20662;-83
2021/05/04 00:58:47;;;;;;;14.27;7.22;;;9.10;99.90;;;;;;5093225;28;20056;-83
2021/05/04 01:01:13;;;;;;;8.80;6.55;;;9.00;99.90;;;;;;5095522;28;20077;-83
2021/05/04 01:03:40;;;;;;;12.02;7.57;;;9.00;99.90;;;;;;5097961;28;20058;-83
2021/05/04 01:06:06;;;;;;;7.47;5.90;;;8.90;99.90;;;;;;5086046;28;20107;-83
2021/05/04 01:08:33;;;;;;;11.50;5.70;;;8.90;99.90;;;;;;5091791;28;20040;-83
2021/05/04 01:10:59;;;;;;;8.30;5.13;;;8.80;99.90;;;;;;5091929;28;20056;-83
2021/05/04 01:13:25;;;;;;;7.95;6.25;;;8.80;99.90;;;;;;5090549;28;20056;-83
2021/05/04 01:15:52;;;;;;;11.73;6.50;;;8.80;99.90;;;;;;5095180;28;20075;-83
2021/05/04 01:18:19;;;;;;;10.60;4.65;;;8.80;99.90;;;;;;5089889;28;21101;-83
2021/05/04 01:20:50;;;;;;;9.63;5.47;;;8.80;99.90;;;;;;5094378;28;20057;-84
2021/05/04 01:23:16;;;;;;;9.73;5.72;;;8.80;99.90;;;;;;5093336;28;20107;-83
2021/05/04 01:25:43;;;;;;;10.63;5.78;;;8.70;99.90;;;;;;5093861;28;20052;-82
2021/05/04 01:28:09;;;;;;;7.38;5.15;;;8.70;99.90;;;;;;5107145;28;20091;-83
2021/05/04 01:30:35;;;;;;;6.30;5.25;;;8.70;99.90;;;;;;5094420;28;20048;-84
2021/05/04 01:33:02;;;;;;;7.55;5.50;;;8.60;99.90;;;;;;5093334;28;20056;-83
2021/05/04 01:35:28;;;;;;;7.53;5.55;;;8.60;99.90;;;;;;5092197;28;20109;-84
2021/05/04 01:37:56;;;;;;;11.07;6.55;;;8.60;99.90;;;;;;5098902;27;20072;-83
2021/05/04 01:40:22;;;;;;;10.82;5.63;;;8.60;99.90;;;;;;5090802;28;20063;-83
2021/05/04 01:42:49;;;;;;;7.85;6.25;;;8.50;99.90;;;;;;5091058;28;20040;-84
2021/05/04 01:45:16;;;;;;;8.90;6.05;;;8.50;99.90;;;;;;5092022;28;20113;-83
2021/05/04 01:47:42;;;;;;;12.90;6.22;;;8.40;99.90;;;;;;5087904;28;20036;-83
2021/05/04 01:50:11;;;;;;;9.82;6.53;;;8.40;99.90;;;;;;5088166;28;20070;-83
2021/05/04 01:52:37;;;;;;;13.30;7.50;;;8.40;99.90;;;;;;5092385;27;20100;-83
2021/05/04 01:55:05;;;;;;;13.23;7.90;;;8.40;99.90;;;;;;5092821;28;20059;-84
2021/05/04 01:57:31;;;;;;;10.63;6.63;;;8.40;99.90;;;;;;5089977;28;20048;-83
2021/05/04 01:59:57;;;;;;;12.02;6.35;;;8.30;99.90;;;;;;5091301;28;20952;-83
2021/05/04 02:02:23;;;;;;;8.82;7.35;;;8.40;99.90;;;;;;5089618;28;20078;-82
2021/05/04 02:04:52;;;;;;;8.25;7.13;;;8.40;99.90;;;;;;5100585;28;20557;-83
2021/05/04 02:07:18;;;;;;;9.10;6.95;;;8.30;99.90;;;;;;5089342;28;20104;-83
2021/05/04 02:09:44;;;;;;;11.57;6.97;;;8.30;99.90;;;;;;5090725;28;20060;-82
2021/05/04 02:12:10;;;;;;;10.65;6.80;;;8.40;99.90;;;;;;5090589;28;20528;-83
2021/05/04 02:14:36;;;;;;;7.88;6.65;;;8.30;99.90;;;;;;5085280;28;20100;-83
2021/05/04 02:17:03;;;;;;;11.38;6.72;;;8.30;99.90;;;;;;5089131;28;20479;-83
2021/05/04 02:19:29;;;;;;;7.07;5.75;;;8.30;99.90;;;;;;5091072;28;20048;-83
2021/05/04 02:21:55;;;;;;;11.32;6.88;;;8.20;99.90;;;;;;5086743;28;20111;-83
2021/05/04 02:24:21;;;;;;;9.48;6.22;;;8.20;99.90;;;;;;5089019;28;20051;-84
2021/05/04 02:26:48;;;;;;;10.05;5.60;;;8.20;99.90;;;;;;5087446;28;20103;-84
2021/05/04 02:29:14;;;;;;;8.93;6.13;;;8.20;99.90;;;;;;5089555;28;20047;-83
2021/05/04 02:31:40;;;;;;;7.53;5.78;;;8.20;99.90;;;;;;5090661;28;20498;-83
2021/05/04 02:34:06;;;;;;;6.28;5.22;;;8.20;99.90;;;;;;5107689;28;20107;-83
2021/05/04 02:36:33;;;;;;;7.60;5.82;;;8.30;99.90;;;;;;5090753;28;20085;-82
2021/05/04 02:38:59;;;;;;;10.38;7.07;;;8.20;99.90;;;;;;5087312;28;20120;-83
2021/05/04 02:41:26;;;;;;;8.40;5.68;;;8.20;99.90;;;;;;5089924;28;20043;-82
2021/05/04 02:43:52;;;;;;;7.93;6.45;;;8.20;99.90;;;;;;5077440;28;20053;-83
2021/05/04 02:46:18;;;;;;;8.02;6.72;;;8.20;99.90;;;;;;5079139;28;20111;-83
2021/05/04 02:48:45;;;;;;;7.40;5.90;;;8.20;99.90;;;;;;5084735;28;20380;-83
2021/05/04 02:51:12;;;;;;;8.32;6.15;;;8.10;99.90;;;;;;5092832;28;20125;-83
2021/05/04 02:53:39;;;;;;;9.20;5.28;;;8.10;99.90;;;;;;5095286;28;20390;-82
2021/05/04 02:56:07;;;;;;;12.65;6.32;;;8.20;99.90;;;;;;5075082;28;20547;-83
2021/05/04 02:58:33;;;;;;;10.65;5.55;;;8.10;99.90;;;;;;5070886;28;20128;-82
2021/05/04 03:00:59;;;;;;;8.77;5.72;;;8.10;99.90;;;;;;5082668;27;20149;-82
2021/05/04 03:03:26;;;;;;;8.63;6.22;;;8.10;99.90;;;;;;5094180;27;20104;-83
2021/05/04 03:05:53;;;;;;;7.35;5.00;;;8.10;99.90;;;;;;5089468;28;20135;-83
2021/05/04 03:08:19;;;;;;;6.72;6.00;;;8.10;99.90;;;;;;5095809;28;20074;-83
2021/05/04 03:10:46;;;;;;;6.63;5.32;;;8.10;99.90;;;;;;5097677;27;20056;-82
2021/05/04 03:13:12;;;;;;;7.18;5.82;;;8.10;99.90;;;;;;5095367;28;20052;-82
2021/05/04 03:15:39;;;;;;;5.65;4.93;;;8.20;99.90;;;;;;5093893;28;20044;-83
2021/05/04 03:18:05;;;;;;;8.75;5.28;;;8.10;99.90;;;;;;5093010;28;20163;-83
2021/05/04 03:20:32;;;;;;;10.02;5.22;;;8.10;99.90;;;;;;5072540;28;20092;-83
2021/05/04 03:23:00;;;;;;;11.35;6.05;;;8.10;99.90;;;;;;5072081;28;20044;-82
2021/05/04 03:25:26;;;;;;;6.07;5.45;;;8.10;99.90;;;;;;5076293;28;20048;-82
2021/05/04 03:27:57;;;;;;;7.47;5.85;;;8.10;99.90;;;;;;5073450;28;20055;-82
2021/05/04 03:30:23;;;;;;;7.05;6.05;;;8.10;99.90;;;;;;5073184;28;20452;-82
2021/05/04 03:32:50;;;;;;;9.27;6.10;;;8.10;99.90;;;;;;5076318;28;20112;-83
2021/05/04 03:35:18;;;;;;;7.70;5.05;;;8.10;99.90;;;;;;5076916;28;20322;-82
2021/05/04 03:37:45;;;;;;;6.70;5.47;;;8.10;99.90;;;;;;5071989;28;20052;-83
2021/05/04 03:40:12;;;;;;;7.28;5.72;;;8.10;99.90;;;;;;5071832;28;20112;-82
2021/05/04 03:42:38;;;;;;;9.60;5.85;;;8.10;99.90;;;;;;5070627;28;20308;-82
2021/05/04 03:45:07;;;;;;;8.45;5.85;;;8.10;99.90;;;;;;5094060;28;20070;-83
2021/05/04 03:47:36;;;;;;;8.18;6.40;;;8.20;99.90;;;;;;5093017;27;20547;-83
2021/05/04 03:50:04;;;;;;;9.05;5.55;;;8.20;99.90;;;;;;5091578;28;20055;-83
2021/05/04 03:52:30;;;;;;;14.43;5.78;;;8.20;99.90;;;;;;5088543;28;20142;-83
2021/05/04 03:54:56;;;;;;;7.20;5.47;;;8.20;99.90;;;;;;5095798;28;20047;-83
2021/05/04 03:57:22;;;;;;;9.07;5.00;;;8.20;99.90;;;;;;5091979;28;20626;-83
2021/05/04 03:59:49;;;;;;;7.82;5.68;;;8.20;99.90;;;;;;5095151;28;20056;-83
2021/05/04 04:02:15;;;;;;;7.10;5.03;;;8.30;99.90;;;;;;5073102;28;20125;-81
2021/05/04 04:04:41;;;;;;;8.25;4.60;;;8.30;99.90;;;;;;5074171;28;20048;-83
2021/05/04 04:07:07;;;;;;;5.22;4.68;;;8.30;99.90;;;;;;5075437;28;20059;-83
2021/05/04 04:09:34;;;;;;;6.13;4.50;;;8.30;99.90;;;;;;5074630;28;20657;-82
2021/05/04 04:12:00;;;;;;;5.80;4.25;;;8.30;99.90;;;;;;5091511;28;20107;-82
2021/05/04 04:14:27;;;;;;;6.97;4.38;;;8.40;99.90;;;;;;5092386;28;20048;-82
2021/05/04 04:16:53;;;;;;;5.90;4.43;;;8.40;99.90;;;;;;5091183;28;20083;-82
2021/05/04 04:19:19;;;;;;;5.75;4.07;;;8.30;99.90;;;;;;5091839;28;20061;-83
2021/05/04 04:21:48;;;;;;;5.47;4.32;;;8.40;99.90;;;;;;5090150;28;20489;-82
2021/05/04 04:24:15;;;;;;;5.35;4.45;;;8.40;99.90;;;;;;5088982;27;20047;-82
2021/05/04 04:26:42;;;;;;;4.38;3.13;;;8.40;99.90;;;;;;5090168;28;20083;-82
2021/05/04 04:29:09;;;;;;;5.85;3.35;;;8.40;99.90;;;;;;5086937;28;20075;-82
2021/05/04 04:31:37;;;;;;;7.88;4.15;;;8.40;99.90;;;;;;5090508;28;20048;-83
2021/05/04 04:34:04;;;;;;;7.68;4.00;;;8.50;99.90;;;;;;5089770;28;20105;-83
2021/05/04 04:36:30;;;;;;;5.20;3.65;;;8.60;99.90;;;;;;5088969;28;20057;-82
2021/05/04 04:39:03;;;;;;;4.47;2.90;;;8.70;99.90;;;;;;5088421;28;20474;-83
2021/05/04 04:41:37;;;;;;;6.65;2.83;;;8.70;99.90;;;;;;5086729;28;20147;-81
2021/05/04 04:44:05;;;;;;;3.50;3.05;;;8.70;99.90;;;;;;5088406;28;20162;-81
2021/05/04 04:46:40;;;;;;;5.00;2.83;;;8.80;99.90;;;;;;5087452;28;20059;-82
2021/05/04 04:49:09;;;;;;;5.80;3.67;;;8.70;99.90;;;;;;5101350;28;20078;-81
2021/05/04 04:51:36;;;;;;;5.95;3.20;;;8.70;99.90;;;;;;5086341;28;20103;-81
2021/05/04 04:54:04;;;;;;;4.82;3.35;;;8.70;99.90;;;;;;5085098;28;20086;-82
2021/05/04 04:56:31;;;;;;;9.68;4.60;;;8.60;99.90;;;;;;5086161;28;20752;-82
2021/05/04 04:58:58;;;;;;;13.93;5.55;;;8.60;99.90;;;;;;5083608;28;20060;-83
2021/05/04 05:01:25;;;;;;;12.70;4.20;;;8.60;99.90;;;;;;5067450;28;20056;-83
2021/05/04 05:03:51;;;;;;;9.02;5.90;;;8.60;99.90;;;;;;5068234;28;20084;-81
2021/05/04 05:06:20;;;;;;;5.38;3.58;;;8.60;99.90;;;;;;5067664;28;20052;-81
2021/05/04 05:08:49;;;;;;;6.05;4.07;;;8.60;99.90;;;;;;5067406;28;20102;-81
2021/05/04 05:11:15;;;;;;;5.05;4.35;;;8.50;99.90;;;;;;5069285;28;20136;-81
2021/05/04 05:13:43;;;;;;;9.02;4.32;;;8.60;99.90;;;;;;5068159;28;20058;-81
2021/05/04 05:16:10;;;;;;;14.35;4.93;;;8.50;99.90;;;;;;5071115;28;20032;-80
2021/05/04 05:18:36;;;;;;;6.22;3.78;;;8.60;99.90;;;;;;5069287;28;20112;-81
2021/05/04 05:21:02;;;;;;;9.18;3.90;;;8.60;99.90;;;;;;5070082;28;20060;-81
2021/05/04 05:23:28;;;;;;;5.20;3.30;;;8.60;99.90;;;;;;5078325;28;20140;-81
2021/05/04 05:25:55;;;;;;;5.05;2.63;;;8.60;99.90;;;;;;5068239;28;20060;-81
2021/05/04 05:28:21;;;;;;;5.97;2.78;;;8.70;99.90;;;;;;5070410;28;20735;-81
2021/05/04 05:30:47;;;;;;;4.60;3.28;;;8.70;99.90;;;;;;5093215;28;20048;-81
2021/05/04 05:33:14;;;;;;;5.90;3.13;;;8.70;99.90;;;;;;5093204;27;20062;-81
2021/05/04 05:35:40;;;;;;;3.65;2.30;;;8.70;99.90;;;;;;5092831;28;20119;-80
2021/05/04 05:38:24;;;;;;;4.60;2.88;;;8.70;99.90;;;;;;5087951;28;20052;-81
2021/05/04 05:40:50;;;;;;;6.43;2.83;;;8.80;99.90;;;;;;5094391;28;20573;-81
2021/05/04 05:43:16;;;;;;;3.70;2.60;;;8.80;99.90;;;;;;5094375;28;20048;-80
2021/05/04 05:45:48;;;;;;;4.30;3.17;;;8.90;99.90;;;;;;5093196;28;20044;-81
2021/05/04 05:48:14;;;;;;;4.80;3.08;;;9.00;99.90;;;;;;5092413;28;20092;-81
2021/05/04 05:50:40;;;;;;;5.75;2.40;;;9.00;99.90;;;;;;5109080;28;20071;-81
2021/05/04 05:53:06;;;;;;;6.82;2.88;;;9.00;99.90;;;;;;5094191;28;20046;-81
2021/05/04 05:55:33;;;;;;;7.53;3.00;;;9.00;99.90;;;;;;5077226;28;20381;-81
2021/05/04 05:57:59;;;;;;;8.63;3.30;;;9.10;99.90;;;;;;5073651;28;20110;-81
2021/05/04 06:00:26;;;;;;;8.68;3.13;;;9.20;99.90;;;;;;5070788;28;20047;-81
2021/05/04 06:02:52;;;;;;;6.15;3.20;;;9.40;99.90;;;;;;5075748;28;20048;-81
2021/05/04 06:05:18;;;;;;;12.02;4.15;;;9.50;99.90;;;;;;5071576;28;20565;-81
2021/05/04 06:07:45;;;;;;;13.88;3.22;;;9.70;99.90;;;;;;5064836;28;20521;-80
2021/05/04 06:10:12;;;;;;;12.20;3.60;;;9.90;99.90;;;;;;5073808;28;20048;-81
2021/05/04 06:12:39;;;;;;;11.38;3.30;;;10.00;99.90;;;;;;5059528;28;20063;-81
2021/05/04 06:15:06;;;;;;;12.88;3.92;;;10.00;99.90;;;;;;5058960;28;20423;-81
2021/05/04 06:17:32;;;;;;;10.23;3.28;;;10.00;99.90;;;;;;5068899;28;20052;-80
2021/05/04 06:19:58;;;;;;;11.80;3.80;;;10.10;99.90;;;;;;5071139;28;20074;-81
2021/05/04 06:22:25;;;;;;;13.65;3.33;;;10.20;99.90;;;;;;5073245;28;20125;-84
2021/05/04 06:24:51;;;;;;;9.30;3.10;;;10.20;99.90;;;;;;5070252;28;20096;-82
2021/05/04 06:27:17;;;;;;;14.45;3.60;;;10.30;99.90;;;;;;5069066;28;20103;-82
2021/05/04 06:29:45;;;;;;;9.85;2.78;;;10.30;99.90;;;;;;5072792;28;20086;-82
2021/05/04 06:32:13;;;;;;;14.50;3.33;;;10.30;99.90;;;;;;5072612;28;20067;-82
2021/05/04 06:34:41;;;;;;;12.30;3.65;;;10.30;99.90;;;;;;5063900;28;20131;-81
2021/05/04 06:37:07;;;;;;;14.63;3.47;;;10.40;99.90;;;;;;5062268;28;20155;-82
2021/05/04 06:39:34;;;;;;;14.43;2.90;;;10.40;99.90;;;;;;5068703;28;20048;-82
2021/05/04 06:42:01;;;;;;;11.63;2.33;;;10.50;99.90;;;;;;5071005;28;20056;-82
2021/05/04 06:44:27;;;;;;;23.15;3.78;;;10.50;99.90;;;;;;5066340;28;20079;-83
2021/05/04 06:46:54;;;;;;;13.65;2.58;;;10.70;99.90;;;;;;5086471;28;20059;-82
2021/05/04 06:49:20;;;;;;;9.57;2.55;;;10.80;99.90;;;;;;5069979;28;20131;-82
2021/05/04 06:51:46;;;;;;;16.58;3.50;;;11.00;99.90;;;;;;5062166;28;20147;-83
2021/05/04 06:54:12;;;;;;;11.75;2.85;;;11.00;99.90;;;;;;5066635;28;20056;-82
2021/05/04 06:56:39;;;;;;;15.45;3.03;;;11.00;99.90;;;;;;5068941;28;20443;-83
2021/05/04 06:59:06;;;;;;;9.27;1.75;;;10.90;99.90;;;;;;5075703;28;20104;-82
2021/05/04 07:01:33;;;;;;;16.88;2.90;;;10.70;99.90;;;;;;5066311;28;20076;-82
2021/05/04 07:04:00;;;;;;;16.10;3.75;;;10.50;99.90;;;;;;5065909;28;20132;-82
2021/05/04 07:06:26;;;;;;;16.90;2.90;;;10.50;99.90;;;;;;5069641;28;20055;-82
2021/05/04 07:08:52;;;;;;;16.27;3.45;;;10.40;99.90;;;;;;5072089;28;20084;-83
2021/05/04 07:11:18;;;;;;;22.13;3.17;;;10.40;99.90;;;;;;5067817;28;20053;-81
2021/05/04 07:13:46;;;;;;;20.10;3.50;;;10.30;99.90;;;;;;5067041;28;25424;-80
2021/05/04 07:16:12;;;;;;;8.55;1.50;;;10.10;99.90;;;;;;5057826;28;20548;-83
2021/05/04 07:18:41;;;;;;;14.85;2.05;;;9.90;99.90;;;;;;5060030;28;20396;-82
2021/05/04 07:21:10;;;;;;;6.93;1.23;;;9.60;99.90;;;;;;5080021;28;20064;-83
2021/05/04 07:23:36;;;;;;;4.93;1.50;;;9.40;99.90;;;;;;5083125;28;20052;-81
2021/05/04 07:26:05;;;;;;;9.48;1.95;;;9.20;99.90;;;;;;5083851;28;20094;-82
2021/05/04 07:28:32;;;;;;;13.30;2.70;;;9.00;99.90;;;;;;5065471;28;20135;-82
2021/05/04 07:30:58;;;;;;;27.75;4.68;;;8.90;99.90;;;;;;5085513;28;20044;-82
2021/05/04 07:33:24;;;;;;;23.73;4.03;;;9.00;99.90;;;;;;5081886;28;20105;-81
2021/05/04 07:35:51;;;;;;;18.83;3.17;;;9.10;99.90;;;;;;5066916;28;20501;-81
2021/05/04 07:38:18;;;;;;;15.30;2.47;;;9.20;99.90;;;;;;5077400;28;20135;-81
2021/05/04 07:40:44;;;;;;;21.33;3.60;;;9.40;99.90;;;;;;5072659;28;20048;-83
2021/05/04 07:43:11;;;;;;;19.15;4.38;;;9.60;99.90;;;;;;5073751;28;21010;-82
2021/05/04 07:45:38;;;;;;;22.73;2.95;;;9.90;99.90;;;;;;5069620;28;20045;-82
2021/05/04 07:48:07;;;;;;;18.75;3.22;;;10.10;99.90;;;;;;5069528;28;20055;-83
2021/05/04 07:50:33;;;;;;;11.57;2.88;;;10.30;99.90;;;;;;5070741;28;20064;-81
2021/05/04 07:53:03;;;;;;;21.55;3.50;;;10.50;99.90;;;;;;5062715;28;20131;-82
2021/05/04 07:55:30;;;;;;;22.30;5.25;;;10.70;99.90;;;;;;5058711;28;20072;-82
2021/05/04 07:57:58;;;;;;;22.05;3.47;;;10.80;99.90;;;;;;5066653;28;20125;-82
2021/05/04 08:00:24;;;;;;;22.35;3.85;;;11.00;99.90;;;;;;5062927;28;20051;-81
2021/05/04 08:02:50;;;;;;;22.08;3.40;;;11.30;99.90;;;;;;5083827;28;20056;-81
2021/05/04 08:05:17;;;;;;;20.10;2.92;;;11.40;99.90;;;;;;5089308;28;20060;-83
2021/05/04 08:07:43;;;;;;;22.67;3.28;;;11.40;99.90;;;;;;5069089;28;20588;-79
2021/05/04 08:10:10;;;;;;;13.52;2.78;;;11.10;99.90;;;;;;5058853;28;20474;-80
2021/05/04 08:12:37;;;;;;;17.77;2.53;;;10.70;99.90;;;;;;5065440;28;20055;-80
2021/05/04 08:15:11;;;;;;;12.65;2.78;;;10.30;99.90;;;;;;5066298;28;20052;-83
2021/05/04 08:17:39;;;;;;;10.45;2.40;;;9.80;99.90;;;;;;5070351;28;20120;-81
2021/05/04 08:20:06;;;;;;;17.75;2.95;;;9.50;99.90;;;;;;5068592;28;20597;-80
2021/05/04 08:22:33;;;;;;;18.63;3.35;;;9.30;99.90;;;;;;5042817;28;20057;-80
2021/05/04 08:25:00;;;;;;;19.55;3.13;;;9.20;99.90;;;;;;5066979;28;20462;-80
2021/05/04 08:27:30;;;;;;;14.40;2.55;;;9.10;99.90;;;;;;5071588;28;20041;-81
2021/05/04 08:29:56;;;;;;;15.35;3.17;;;9.20;99.90;;;;;;5058957;28;20412;-80
2021/05/04 08:32:22;;;;;;;15.80;2.95;;;9.50;99.90;;;;;;5053910;28;20053;-80
2021/05/04 08:34:49;;;;;;;18.48;3.45;;;9.80;99.90;;;;;;5069141;28;20128;-80
2021/05/04 08:37:17;;;;;;;21.38;3.22;;;10.20;99.90;;;;;;5071612;28;20044;-80
2021/05/04 08:39:44;;;;;;;26.92;4.32;;;10.60;99.90;;;;;;5069168;28;20127;-80
2021/05/04 08:42:11;;;;;;;24.45;6.03;;;10.80;99.90;;;;;;5064215;28;20079;-81
2021/05/04 08:44:40;;;;;;;25.45;3.13;;;11.00;99.90;;;;;;5070218;28;20079;-80
2021/05/04 08:47:07;;;;;;;18.77;3.45;;;11.10;99.90;;;;;;5060973;28;20106;-80
2021/05/04 08:49:38;;;;;;;23.95;3.10;;;11.20;99.90;;;;;;5061890;28;20051;-80
2021/05/04 08:52:04;;;;;;;18.13;3.83;;;11.20;99.90;;;;;;5072356;28;20047;-80
2021/05/04 08:54:34;;;;;;;19.98;3.92;;;11.30;99.90;;;;;;5083042;28;20457;-80
2021/05/04 08:57:00;;;;;;;20.17;3.33;;;11.30;99.90;;;;;;5059856;28;20061;-79
2021/05/04 08:59:36;;;;;;;19.00;3.05;;;11.30;99.90;;;;;;5017408;28;20052;-80
2021/05/04 09:02:05;;;;;;;9.00;1.88;;;11.10;99.90;;;;;;5026029;28;20057;-81
2021/05/04 09:04:39;;;;;;;8.60;1.65;;;11.00;99.90;;;;;;5053139;27;20058;-79
2021/05/04 09:07:19;;;;;;;;;;;10.60;99.90;;;;;;5059625;28;20108;-79
2021/05/04 09:10:33;;;;;;;7.38;1.67;;;10.10;99.90;;;;;;5067384;28;19947;-80
2021/05/04 09:21:09;;;;;;;16.58;2.47;;;9.80;99.90;;;;;;5086722;27;20064;-80
2021/05/04 09:23:36;;;;;;;10.73;2.60;;;10.00;99.90;;;;;;5060502;28;20068;-80
2021/05/04 09:26:03;;;;;;;18.80;2.63;;;10.30;99.90;;;;;;5069997;28;20532;-83
2021/05/04 09:28:29;;;;;;;15.82;2.95;;;10.50;99.90;;;;;;5084022;28;20556;-81
2021/05/04 09:30:57;;;;;;;12.45;2.70;;;10.50;99.90;;;;;;5077285;28;20180;-81
2021/05/04 09:33:25;;;;;;;10.32;2.30;;;10.40;99.90;;;;;;5073935;27;20039;-81
2021/05/04 09:35:56;;;;;;;9.85;1.55;;;10.30;99.90;;;;;;5065389;28;20052;-82
2021/05/04 09:38:23;;;;;;;10.65;1.73;;;10.20;99.90;;;;;;5078635;27;20089;-82
2021/05/04 09:40:49;;;;;;;11.45;1.67;;;10.30;99.90;;;;;;5064439;28;20167;-83
2021/05/04 09:43:21;;;;;;;12.23;1.42;;;10.40;99.90;;;;;;5081816;28;20055;-81
2021/05/04 09:45:54;;;;;;;8.75;1.70;;;10.60;99.90;;;;;;5072533;28;20040;-81
2021/05/04 09:48:24;;;;;;;8.18;1.25;;;10.80;99.90;;;;;;5074622;28;20105;-81
2021/05/04 09:51:03;;;;;;;5.50;1.58;;;11.00;99.90;;;;;;5053095;28;20048;-81
2021/05/04 09:53:49;;;;;;;5.05;1.95;;;11.00;99.90;;;;;;5052142;28;20163;-81
2021/05/04 09:56:17;;;;;;;8.43;1.10;;;10.90;99.90;;;;;;5074657;28;20059;-81
2021/05/04 09:58:46;;;;;;;10.43;2.03;;;10.70;99.90;;;;;;5088709;28;20590;-82
2021/05/04 10:01:17;;;;;;;7.20;1.52;;;10.40;99.90;;;;;;5082917;28;21837;-82
2021/05/04 10:03:48;;;;;;;4.13;0.50;;;10.20;99.90;;;;;;5089945;28;20403;-82
2021/05/04 10:06:17;;;;;;;2.53;0.60;;;9.80;99.90;;;;;;5092592;28;20056;-81
2021/05/04 10:08:45;;;;;;;2.30;0.60;;;9.40;99.90;;;;;;5092952;28;20073;-82
2021/05/04 10:11:19;;;;;;;3.80;0.70;;;9.20;99.90;;;;;;5069262;28;20060;-81
2021/05/04 10:13:50;;;;;;;6.13;0.93;;;9.00;99.90;;;;;;5068040;28;20052;-82
2021/05/04 10:16:22;;;;;;;5.50;1.00;;;9.10;99.90;;;;;;5075172;28;20076;-81
2021/05/04 10:18:50;;;;;;;10.23;1.75;;;9.20;99.90;;;;;;5081508;28;20074;-80
2021/05/04 10:21:18;;;;;;;5.25;1.00;;;9.40;99.90;;;;;;5091958;28;20036;-82
2021/05/04 10:23:49;;;;;;;6.53;1.23;;;9.60;99.90;;;;;;5088747;28;20113;-82
2021/05/04 10:26:17;;;;;;;4.55;1.00;;;9.90;99.90;;;;;;5088455;28;20484;-83
2021/05/04 10:29:05;;;;;;;10.20;2.45;;;10.20;99.90;;;;;;5081001;28;20043;-82
2021/05/04 10:31:35;;;;;;;7.10;1.17;;;10.40;99.90;;;;;;5095917;27;20044;-84
2021/05/04 10:34:24;;;;;;;7.57;1.77;;;10.60;99.90;;;;;;5072509;28;20048;-83
2021/05/04 10:36:54;;;;;;;6.35;1.20;;;10.90;99.90;;;;;;5089919;28;20082;-81
2021/05/04 10:39:35;;;;;;;6.43;1.23;;;10.90;99.90;;;;;;5087608;28;20046;-81
2021/05/04 10:42:03;;;;;;;5.78;1.48;;;10.80;99.90;;;;;;5070368;28;20048;-82
2021/05/04 10:44:30;;;;;;;5.15;1.48;;;10.80;99.90;;;;;;5077173;28;20375;-80
2021/05/04 10:46:57;;;;;;;9.40;1.75;;;10.80;99.90;;;;;;5060083;28;20045;-81
2021/05/04 10:49:56;;;;;;;3.13;1.42;;;10.50;99.90;;;;;;5080883;28;20051;-80
2021/05/04 10:52:55;;;;;;;10.48;1.95;;;10.20;99.90;;;;;;5066211;28;20950;-80
2021/05/04 10:55:44;;;;;;;6.47;1.63;;;9.80;99.90;;;;;;5055637;28;21019;-80
2021/05/04 10:58:13;;;;;;;4.00;1.58;;;9.50;99.90;;;;;;5067543;28;20540;-80
2021/05/04 11:00:58;;;;;;;7.22;1.90;;;9.10;99.90;;;;;;5059598;28;20059;-81
2021/05/04 11:03:34;;;;;;;11.68;1.85;;;9.00;99.90;;;;;;5067110;28;20516;-81
2021/05/04 11:06:02;;;;;;;6.85;1.50;;;9.10;99.90;;;;;;5064411;28;20080;-81
2021/05/04 11:08:43;;;;;;;13.80;2.15;;;9.40;99.90;;;;;;5086707;28;20131;-80
2021/05/04 11:11:41;;;;;;;9.35;2.10;;;9.60;99.90;;;;;;5063720;28;20139;-82
2021/05/04 11:14:15;;;;;;;7.32;1.20;;;9.60;99.90;;;;;;5081916;28;20128;-82
2021/05/04 11:16:48;;;;;;;8.65;2.17;;;9.80;99.90;;;;;;5091792;28;20056;-81
2021/05/04 11:22:04;;;;;;;7.60;1.42;;;9.90;99.90;;;;;;5091853;28;20111;-81
2021/05/04 11:24:32;;;;;;;6.93;1.70;;;9.90;99.90;;;;;;5088910;28;20066;-81
2021/05/04 11:27:04;;;;;;;8.55;2.20;;;9.90;99.90;;;;;;5093713;28;20048;-81
2021/05/04 11:29:30;;;;;;;11.07;1.25;;;10.00;99.90;;;;;;5103967;27;20072;-81
2021/05/04 11:32:20;;;;;;;6.60;1.13;;;10.10;99.90;;;;;;5091869;28;20515;-82
2021/05/04 11:34:52;;;;;;;11.80;1.75;;;10.20;99.90;;;;;;5087953;28;20104;-82
2021/05/04 11:37:19;;;;;;;9.45;2.67;;;10.10;99.90;;;;;;5087721;28;20101;-82
2021/05/04 11:39:51;;;;;;;10.35;1.63;;;10.00;99.90;;;;;;5085432;28;20055;-82
2021/05/04 11:42:38;;;;;;;7.53;1.30;;;9.80;99.90;;;;;;5088770;28;20056;-83
2021/05/04 11:45:08;;;;;;;8.88;2.00;;;9.70;99.90;;;;;;5093764;28;20131;-84
2021/05/04 11:47:36;;;;;;;10.55;1.35;;;9.60;99.90;;;;;;5090855;28;20083;-84
2021/05/04 11:50:10;;;;;;;4.07;1.35;;;9.50;99.90;;;;;;5090719;28;20055;-84
2021/05/04 11:52:38;;;;;;;7.80;1.88;;;9.40;99.90;;;;;;5083620;28;20048;-82
2021/05/04 11:55:12;;;;;;;10.27;1.67;;;9.20;99.90;;;;;;5090427;28;20135;-84
2021/05/04 11:57:39;;;;;;;4.35;1.10;;;9.00;99.90;;;;;;5089806;28;20060;-83
2021/05/04 12:00:09;;;;;;;6.07;1.33;;;9.10;99.90;;;;;;5093550;28;20076;-83
2021/05/04 12:02:36;;;;;;;4.78;1.27;;;9.10;99.90;;;;;;5092910;28;20066;-83
2021/05/04 12:05:03;;;;;;;6.88;1.20;;;9.00;99.90;;;;;;5090473;28;20136;-83
2021/05/04 12:07:46;;;;;;;4.00;1.65;;;8.90;99.90;;;;;;5089817;28;20060;-82
2021/05/04 12:10:15;;;;;;;11.10;1.55;;;8.80;99.90;;;;;;5091731;28;20064;-84
2021/05/04 12:12:56;;;;;;;5.65;1.65;;;8.70;99.90;;;;;;5088601;28;20090;-85
2021/05/04 12:15:53;;;;;;;8.98;1.67;;;8.70;99.90;;;;;;5060785;28;20051;-84
2021/05/04 12:18:27;;;;;;;5.82;1.52;;;8.60;99.90;;;;;;5076712;28;21833;-84
2021/05/04 12:20:56;;;;;;;9.32;1.83;;;8.50;99.90;;;;;;5064032;28;20086;-83
2021/05/04 12:23:37;;;;;;;9.55;2.38;;;8.50;99.90;;;;;;5037210;28;20543;-84
2021/05/04 12:26:13;;;;;;;12.90;2.30;;;8.40;99.90;;;;;;5063297;28;20465;-84
2021/05/04 12:28:56;;;;;;;13.20;2.53;;;8.40;99.90;;;;;;5081802;27;20072;-84
2021/05/04 12:31:29;;;;;;;;;;;8.60;99.90;;;;;;5038407;28;20067;-84
2021/05/04 12:33:59;;;;;;;14.15;1.63;;;8.70;99.90;;;;;;5005041;28;19925;-84
2021/05/04 12:37:04;;;;;;;5.55;1.80;;;8.80;99.90;;;;;;5045908;28;20103;-83
2021/05/04 12:39:31;;;;;;;5.05;1.52;;;8.80;99.90;;;;;;5061900;28;20546;-79
2021/05/04 12:42:02;;;;;;;2.58;0.80;;;8.70;99.90;;;;;;5075660;28;20057;-82
2021/05/04 12:44:30;;;;;;;14.52;1.70;;;8.70;99.90;;;;;;5072038;28;20050;-81
2021/05/04 12:47:06;;;;;;;5.57;1.73;;;8.80;99.90;;;;;;5051216;28;20052;-82
2021/05/04 12:49:42;;;;;;;8.30;1.60;;;8.90;99.90;;;;;;5058048;28;20494;-82
2021/05/04 12:52:15;;;;;;;;;;;8.90;99.90;;;;;;5052766;28;20051;-81
2021/05/04 12:54:48;;;;;;;7.75;1.40;;;9.10;99.90;;;;;;5049098;28;19955;-82
2021/05/04 12:57:29;;;;;;;12.23;1.80;;;9.20;99.90;;;;;;5071798;27;20463;-82
2021/05/04 13:00:15;;;;;;;5.55;1.83;;;9.30;99.90;;;;;;5069794;28;20051;-81
2021/05/04 13:02:41;;;;;;;9.48;1.58;;;9.30;99.90;;;;;;5073727;28;20051;-82
2021/05/04 13:05:20;;;;;;;8.75;2.30;;;9.30;99.90;;;;;;5023368;28;20115;-83
2021/05/04 13:08:04;;;;;;;9.63;1.23;;;9.40;99.90;;;;;;5049232;28;20054;-82
2021/05/04 13:21:42;;;;;;;5.45;1.02;;;10.30;99.90;;;;;;5064562;28;20468;-83